La Roche-sur-Yon/Les Ajoncs

LFRI · Vendée, 卢瓦尔河地区, 法国

罗盘
风向 的 风向 330° La Roche-sur-Yon/Les Ajoncs 10/28
风: 9 kt, 3 beaufort

6 kt

7 kt
改变
0 ft 1.000 2.000 3.000 4.000 5.000
CAVOK
METAR LFRI 251830Z AUTO 33009KT CAVOK 23/17 Q1014 NOSIG

METAR La Roche-sur-Yon/Les Ajoncs - LFRI/EDM

La Roche-sur-Yon/Les Ajoncs是,法国中的小机场。 该机场位于纬度46,70281和经度-1,37987。 该机场有2条跑道: 10/28 和 10L/28R. 本场的ICAO机场代码为LFRI。 该机场的IATA代码为EDM。 机场在Brest FIR中。

该航空气象观测是针对La Roche-sur-Yon/Les Ajoncs在2024年7月25日 20:30, 当地时间进行的。

机场观察

风向为330°,速度为9 kt。

天气为CAVOK。这意味着在5.000 ft或MSA(最低安全高度)以下(以较高者为准)以下没有云。这也意味着没有观测到积雨云或高耸的积云,可见度为10 km 或者更多或更高。此外,不会有雾,降雨或其他重要天气。

温度和风寒是23 °C。 露点为17 °C,相对湿度为69%。 海平面上的气压为1014 hPa (QNH)。

白天

今天,太阳从06:38升起,在21:45降落。 这适用于La Roche-sur-Yon/Les Ajoncs,世界夏令时可能有所不同。 当地时间与世界标准时间之间的时差为+2 小时。 夏令时目前正在进行中。

公司介绍

在这个机场,你可以找到滑翔机飞行俱乐部, 飞行俱乐部 和 跳伞中心。 这个机场上的公司有Vol à voile yonnais, Aéroclub Yonnais, Vendée Sports Aériens 和 Vendée Chute Libre。

体会

到Vliegles.nl去找飞行课程,跳伞和其他飞行体验。 浏览页面,了解La Roche-sur-Yon/Les Ajoncs附近所有可用的活动。 你也可以使用搜索功能来寻找你所在地附近的特定飞行课程、跳伞或其他飞行体验。

跑道

Id 标题 侧风 逆风 侧风 %
10/28 101°-281° 7 kt 6 kt 75 %
10L/28R 101°-281° 7 kt 6 kt 75 %

逆风成分最大的方向会被突出显示,并用于横风计算。 这并不一定意味着这个方向在使用。

温度 & 天气

温度 23 °C
露点 17 °C
相对湿度 69%
Kp-index 1 (0-9)

白天

日出
06:38
中午
14:12
日落
21:45 (1:03)

小工具

你想在你的网站上有一个关于La Roche-sur-Yon/Les Ajoncs的当前航空天气(METAR)的小部件吗?

显示HTML代码
报告变更